Terminal Aerodrome Forecast
Issued by NWS Pittsburgh, PA

Current Version | Previous Version | Text Only | Print | Product List | Glossary Off
Versions: 1 2 3 4 5 6 7 8 9 10 11 12 13 14 15 16 17 18 19 20 21 22 23 24 25 26 27 28 29 30 31

000
FTUS41 KPBZ 260852 AAA
TAFPIT
TAF AMD
KPIT 260852Z 2609/2712 VRB03KT P6SM SCT250
     FM261600 19007KT P6SM VCSH BKN050
     FM261900 23009KT 6SM -SHRA VCTS OVC040CB
     FM262300 28008KT P6SM VCSH BKN015
     FM270200 26007KT P6SM BKN060=

USA.gov is the U.S. government's official web portal to all federal, state and local government web resources and services.